Time;durP1;ratioP1;P1;durP2;ratioP2;P2;SDS_P1;SDS_P2;PMS_P1;PMS_P2;Temp;Humidity;BMP_temperature;BMP_pressure;BME280_temperature;BME280_humidity;BME280_pressure;Samples;Min_cycle;Max_cycle;Signal;HPM_P1;HPM_P2
2022/03/19 00:01:44;;;;;;;35.67;5.50;;;;;;;19.58;56.47;102049.59;7312479;19;155238;-38
2022/03/19 00:04:09;;;;;;;43.63;5.67;;;;;;;19.76;55.43;102054.00;7314591;19;154061;-40
2022/03/19 00:06:39;;;;;;;28.45;5.00;;;;;;;19.99;54.95;102056.41;7313222;19;129861;-40
2022/03/19 00:09:06;;;;;;;40.20;6.20;;;;;;;20.19;53.60;102059.84;7313278;19;129539;-41
2022/03/19 00:11:31;;;;;;;28.08;4.75;;;;;;;20.28;53.82;102048.13;7311981;19;130412;-40
2022/03/19 00:13:57;;;;;;;33.35;5.25;;;;;;;20.41;53.43;102054.47;7314516;19;129271;-40
2022/03/19 00:16:22;;;;;;;22.88;4.68;;;;;;;20.41;53.66;102057.09;7314408;19;129588;-42
2022/03/19 00:18:48;;;;;;;45.47;6.40;;;;;;;20.37;53.33;102058.16;7314499;19;129124;-41
2022/03/19 00:21:14;;;;;;;24.38;4.78;;;;;;;20.31;52.93;102054.03;7311538;19;129670;-39
2022/03/19 00:23:39;;;;;;;36.53;5.78;;;;;;;20.28;53.97;102054.19;7313403;19;129077;-38
2022/03/19 00:26:06;;;;;;;24.15;5.05;;;;;;;20.39;52.99;102058.94;7310835;19;157523;-39
2022/03/19 00:28:31;;;;;;;39.43;5.70;;;;;;;20.46;52.67;102052.50;7313669;19;130838;-39
2022/03/19 00:30:57;;;;;;;43.83;6.10;;;;;;;20.55;52.42;102047.66;7307345;19;153379;-40
2022/03/19 00:33:22;;;;;;;33.30;5.53;;;;;;;20.64;52.50;102052.44;7314538;19;129266;-38
2022/03/19 00:35:47;;;;;;;27.13;4.70;;;;;;;20.77;51.91;102044.88;7312563;19;158362;-38
2022/03/19 00:38:14;;;;;;;27.63;4.85;;;;;;;20.91;52.13;102045.03;7312078;19;158427;-38
2022/03/19 00:40:39;;;;;;;49.60;6.15;;;;;;;20.89;52.15;102025.13;7312798;19;129167;-38
2022/03/19 00:43:04;;;;;;;51.95;6.40;;;;;;;21.13;50.89;102048.31;7314034;19;129311;-37
2022/03/19 00:45:30;;;;;;;49.22;6.85;;;;;;;21.25;51.33;102045.06;7311793;19;158655;-38
2022/03/19 00:47:56;;;;;;;36.67;5.45;;;;;;;21.36;51.20;102045.38;7314330;19;129364;-42
2022/03/19 00:50:21;;;;;;;27.42;4.65;;;;;;;21.42;50.91;102045.03;7314181;19;129320;-38
2022/03/19 00:52:46;;;;;;;45.28;6.05;;;;;;;21.52;50.04;102041.03;7313891;19;129341;-40
2022/03/19 00:55:12;;;;;;;31.80;4.75;;;;;;;21.51;50.05;102036.72;7312808;19;159210;-38
2022/03/19 00:57:47;;;;;;;30.42;4.70;;;;;;;21.47;50.27;102035.19;7314091;19;130340;-38
2022/03/19 01:00:15;;;;;;;32.10;4.80;;;;;;;21.36;50.72;102032.28;7312877;19;130173;-39
2022/03/19 01:02:42;;;;;;;15.48;3.92;;;;;;;21.22;50.50;102034.75;7314316;19;129016;-38
2022/03/19 01:05:08;;;;;;;36.58;4.93;;;;;;;21.13;51.23;102048.31;7314099;19;130131;-38
2022/03/19 01:07:47;;;;;;;62.63;7.50;;;;;;;20.97;51.84;102046.50;7312891;19;129144;-38
2022/03/19 01:10:15;;;;;;;32.92;5.05;;;;;;;20.74;52.11;102024.94;7312667;19;129279;-39
2022/03/19 01:12:40;;;;;;;37.65;5.35;;;;;;;20.72;52.19;102044.25;7313967;19;128937;-38
2022/03/19 01:15:06;;;;;;;39.03;5.40;;;;;;;20.58;52.86;102049.28;7313699;19;131996;-38
2022/03/19 01:17:31;;;;;;;53.17;6.43;;;;;;;20.48;52.96;102046.25;7311853;19;130939;-39
2022/03/19 01:19:59;;;;;;;31.30;4.88;;;;;;;20.36;53.83;102046.00;7310276;19;128696;-38
2022/03/19 01:22:25;;;;;;;26.67;5.05;;;;;;;20.29;54.15;102044.59;7313902;19;129510;-39
2022/03/19 01:24:50;;;;;;;34.03;5.13;;;;;;;20.18;54.04;102042.47;7311132;19;130149;-37
2022/03/19 01:27:16;;;;;;;33.28;5.72;;;;;;;20.13;53.79;102043.59;7313503;19;130324;-38
2022/03/19 01:29:42;;;;;;;37.07;4.90;;;;;;;20.10;54.66;102035.88;7311629;19;129002;-38
2022/03/19 01:32:08;;;;;;;46.35;6.90;;;;;;;20.11;54.71;102034.97;7313582;19;128946;-39
2022/03/19 01:34:33;;;;;;;25.67;4.17;;;;;;;20.21;54.30;102033.66;7313596;19;130771;-38
2022/03/19 01:36:58;;;;;;;32.90;5.05;;;;;;;20.30;53.86;102035.81;7311247;19;158413;-37
2022/03/19 01:39:23;;;;;;;35.83;5.68;;;;;;;20.47;53.95;102038.50;7310073;19;154693;-38
2022/03/19 01:41:49;;;;;;;28.10;5.45;;;;;;;20.60;53.25;102031.75;7312087;19;152985;-37
2022/03/19 01:44:19;;;;;;;51.65;6.45;;;;;;;20.81;53.04;102032.50;7310240;19;158689;-40
2022/03/19 01:47:07;;;;;;;21.85;3.80;;;;;;;20.97;52.49;102026.47;7310676;19;130876;-40
2022/03/19 01:49:33;;;;;;;33.45;5.20;;;;;;;21.13;51.66;102023.91;7311793;19;129714;-38
2022/03/19 01:51:58;;;;;;;18.65;4.25;;;;;;;21.24;51.29;102021.56;7313783;19;128775;-39
2022/03/19 01:54:30;;;;;;;29.25;4.75;;;;;;;21.39;51.23;102024.25;7310387;19;158969;-36
2022/03/19 01:56:57;;;;;;;38.03;5.38;;;;;;;21.32;50.44;102003.75;7312545;19;129734;-39
2022/03/19 01:59:24;;;;;;;41.47;5.80;;;;;;;21.36;51.08;102021.81;7312098;19;130208;-40
2022/03/19 02:01:50;;;;;;;25.50;4.38;;;;;;;21.28;51.48;102018.75;7313601;19;129083;-38
2022/03/19 02:04:16;;;;;;;49.05;5.78;;;;;;;21.16;51.24;102013.28;7312136;19;130422;-38
2022/03/19 02:06:44;;;;;;;26.45;4.10;;;;;;;21.06;51.85;102012.06;7310038;19;130058;-39
2022/03/19 02:09:09;;;;;;;42.38;5.43;;;;;;;20.95;52.41;102009.97;7311640;19;129398;-39
2022/03/19 02:11:36;;;;;;;11.90;3.80;;;;;;;20.85;52.68;102010.50;7313343;19;129104;-39
2022/03/19 02:14:01;;;;;;;66.07;7.90;;;;;;;20.71;52.27;102006.78;7311799;19;130507;-40
2022/03/19 02:16:26;;;;;;;40.88;5.65;;;;;;;20.62;52.65;102009.03;7310996;19;129969;-38
2022/03/19 02:18:52;;;;;;;22.58;4.32;;;;;;;20.51;53.18;102008.69;7311892;19;155254;-37
2022/03/19 02:21:17;;;;;;;14.77;3.67;;;;;;;20.42;53.72;102003.91;7308587;19;136763;-39
2022/03/19 02:26:26;;;;;;;33.28;4.57;;;;;;;20.25;54.49;102002.09;7309835;19;129411;-38
2022/03/19 02:28:51;;;;;;;30.65;4.75;;;;;;;20.22;54.57;102004.00;7310230;19;154536;-38
2022/03/19 02:31:17;;;;;;;22.80;3.80;;;;;;;20.21;54.45;102004.94;7309643;19;129024;-37
2022/03/19 02:33:42;;;;;;;22.77;3.72;;;;;;;20.27;54.01;102002.88;7312581;19;129518;-37
2022/03/19 02:36:08;;;;;;;41.72;5.60;;;;;;;20.33;54.53;101999.97;7310449;19;130134;-39
2022/03/19 02:38:33;;;;;;;22.95;4.15;;;;;;;20.48;53.96;101998.38;7310511;19;130298;-40
2022/03/19 02:41:03;;;;;;;34.88;5.03;;;;;;;20.63;53.69;102001.09;7306244;19;154735;-39
2022/03/19 02:43:28;;;;;;;26.85;4.18;;;;;;;20.80;53.04;102005.50;7309567;19;130677;-39
2022/03/19 02:45:53;;;;;;;39.25;5.60;;;;;;;20.96;52.15;102000.38;7308646;19;158162;-39
2022/03/19 02:48:18;;;;;;;25.83;4.13;;;;;;;21.10;51.73;101993.53;7308194;19;143980;-39
2022/03/19 02:50:44;;;;;;;21.63;3.73;;;;;;;21.28;51.91;102003.06;7308304;19;154684;-41
2022/03/19 02:53:11;;;;;;;16.60;3.43;;;;;;;21.42;51.13;102004.97;7309951;19;159120;-38
2022/03/19 02:55:38;;;;;;;25.92;4.00;;;;;;;21.54;50.84;102002.53;7315930;19;129390;-39
2022/03/19 02:58:05;;;;;;;46.70;5.80;;;;;;;21.72;50.53;102003.31;7318359;19;129199;-39
2022/03/19 03:00:32;;;;;;;22.55;3.92;;;;;;;21.70;50.50;102005.19;7316630;19;128939;-39
2022/03/19 03:02:58;;;;;;;30.63;4.78;;;;;;;21.65;50.66;101992.31;7318258;19;130188;-39
2022/03/19 03:05:24;;;;;;;49.33;6.20;;;;;;;21.58;50.61;101996.22;7317635;19;130543;-39
2022/03/19 03:07:49;;;;;;;47.50;5.70;;;;;;;21.52;50.82;101990.44;7315876;19;129236;-38
2022/03/19 03:10:16;;;;;;;23.27;4.13;;;;;;;21.39;51.06;101987.63;7315348;19;154344;-40
2022/03/19 03:12:42;;;;;;;22.40;3.78;;;;;;;21.26;51.09;101983.97;7318487;19;130191;-40
2022/03/19 03:15:08;;;;;;;28.83;4.18;;;;;;;21.14;51.34;101986.38;7317870;19;129880;-40
2022/03/19 03:17:34;;;;;;;30.40;4.67;;;;;;;21.01;51.80;101973.06;7316663;19;129139;-39
2022/03/19 03:20:00;;;;;;;24.03;3.70;;;;;;;20.91;52.41;101982.25;7316585;19;130108;-40
2022/03/19 03:22:25;;;;;;;24.20;4.13;;;;;;;20.80;52.75;101976.75;7318299;19;130502;-40
2022/03/19 03:24:51;;;;;;;55.50;6.30;;;;;;;20.69;52.82;101976.44;7316917;19;130429;-39
2022/03/19 03:27:16;;;;;;;20.25;3.70;;;;;;;20.59;53.01;101967.34;7316164;19;154802;-38
2022/03/19 03:29:41;;;;;;;28.52;4.32;;;;;;;20.52;54.07;101968.56;7313437;19;153300;-40
2022/03/19 03:32:09;;;;;;;24.02;3.70;;;;;;;20.45;53.92;101959.34;7316949;19;130265;-39
2022/03/19 03:34:35;;;;;;;34.78;4.63;;;;;;;20.44;54.37;101948.03;7316781;19;130402;-40
2022/03/19 03:37:00;;;;;;;43.97;5.22;;;;;;;20.43;53.83;101948.97;7316398;19;131909;-38
2022/03/19 03:39:25;;;;;;;40.75;5.15;;;;;;;20.50;53.76;101949.50;7314686;19;135671;-38
2022/03/19 03:41:50;;;;;;;21.83;3.55;;;;;;;20.63;53.74;101945.34;7314947;19;158566;-39
2022/03/19 03:44:16;;;;;;;14.00;3.10;;;;;;;20.69;53.13;101929.38;7316738;19;131080;-39
2022/03/19 03:46:41;;;;;;;26.70;3.53;;;;;;;20.94;52.65;101940.25;7314227;19;154842;-38
2022/03/19 03:49:06;;;;;;;34.45;4.50;;;;;;;21.10;52.12;101941.22;7313612;19;154338;-39
2022/03/19 03:51:32;;;;;;;25.50;3.78;;;;;;;21.20;51.81;101931.97;7316417;19;130174;-38
2022/03/19 03:53:58;;;;;;;27.65;4.05;;;;;;;21.26;51.69;101936.88;7315049;19;129877;-39
2022/03/19 03:56:23;;;;;;;38.78;5.07;;;;;;;21.22;52.05;101947.59;7317021;19;129268;-38
2022/03/19 03:58:48;;;;;;;15.83;3.43;;;;;;;21.18;51.70;101939.03;7313671;19;154168;-39
2022/03/19 04:01:13;;;;;;;33.00;4.25;;;;;;;21.12;52.11;101954.22;7312590;19;139721;-38
2022/03/19 04:03:39;;;;;;;24.85;3.83;;;;;;;21.02;52.51;101948.63;7315278;19;158919;-39
2022/03/19 04:06:04;;;;;;;30.55;4.28;;;;;;;20.93;52.67;101958.66;7312999;19;155127;-38
2022/03/19 04:08:29;;;;;;;33.42;4.68;;;;;;;20.86;52.40;101952.88;7314456;19;140932;-38
2022/03/19 04:10:55;;;;;;;26.20;4.10;;;;;;;20.76;53.23;101962.13;7313168;19;129088;-39
2022/03/19 04:13:20;;;;;;;27.63;3.95;;;;;;;20.69;52.84;101958.97;7314494;19;159476;-40
2022/03/19 04:15:50;;;;;;;30.20;4.38;;;;;;;20.60;53.84;101961.19;7313190;19;128945;-38
2022/03/19 04:18:15;;;;;;;;;;;;;;;20.54;54.22;101967.56;7317467;19;128919;-39
2022/03/19 04:20:40;;;;;;;20.03;3.13;;;;;;;20.52;53.96;101963.34;7312380;19;158460;-38
2022/03/19 04:23:06;;;;;;;30.90;4.28;;;;;;;20.47;54.81;101960.13;7317159;19;130491;-38
2022/03/19 04:25:31;;;;;;;54.30;6.20;;;;;;;20.41;54.01;101956.03;7315913;19;130100;-39
2022/03/19 04:27:57;;;;;;;24.10;3.85;;;;;;;20.38;55.13;101950.09;7315589;19;130242;-40
2022/03/19 04:30:25;;;;;;;35.28;4.57;;;;;;;20.33;54.71;101952.94;7313428;19;129087;-38
2022/03/19 04:32:56;;;;;;;24.42;3.45;;;;;;;20.34;55.47;101953.78;7316313;19;130658;-38
2022/03/19 04:38:09;;;;;;;25.83;3.42;;;;;;;20.26;56.62;101945.50;7316437;19;128998;-38
2022/03/19 04:40:35;;;;;;;24.20;3.55;;;;;;;20.25;56.49;101941.16;7314480;19;130107;-38
2022/03/19 04:43:01;;;;;;;33.67;4.90;;;;;;;20.23;56.05;101938.63;7314834;19;130277;-38
2022/03/19 04:45:27;;;;;;;52.92;5.85;;;;;;;20.25;57.21;101939.41;7313531;19;154496;-38
2022/03/19 04:47:53;;;;;;;12.27;3.22;;;;;;;20.22;57.26;101941.31;7315797;19;129267;-38
2022/03/19 04:50:19;;;;;;;37.90;4.73;;;;;;;20.25;56.72;101951.59;7313023;19;129225;-39
2022/03/19 04:52:45;;;;;;;30.15;3.88;;;;;;;20.24;56.97;101958.63;7315555;19;130102;-39
2022/03/19 04:55:11;;;;;;;27.70;4.33;;;;;;;20.26;57.30;101969.00;7315447;19;129537;-38
2022/03/19 04:57:37;;;;;;;25.98;3.80;;;;;;;20.30;57.32;101954.84;7313705;19;128950;-38
2022/03/19 05:00:04;;;;;;;37.00;4.13;;;;;;;20.31;56.80;101948.72;7312509;19;129919;-38
2022/03/19 05:02:30;;;;;;;24.80;3.80;;;;;;;20.32;58.00;101955.63;7314211;19;130157;-39
2022/03/19 05:04:55;;;;;;;26.95;3.63;;;;;;;20.33;56.51;101957.31;7314896;19;131360;-38
2022/03/19 05:07:21;;;;;;;21.58;3.03;;;;;;;20.34;56.96;101967.72;7312396;19;129470;-40
2022/03/19 05:12:33;;;;;;;20.83;3.03;;;;;;;20.43;56.46;101961.16;7314466;19;129059;-38
2022/03/19 05:14:58;;;;;;;;;;;;;;;20.43;58.27;101963.78;7315260;19;129301;-39
2022/03/19 05:17:23;;;;;;;49.40;5.32;;;;;;;20.43;55.94;101955.94;7312468;19;129242;-38
2022/03/19 05:19:48;;;;;;;24.35;3.60;;;;;;;20.46;56.37;101953.22;7312437;19;142233;-38
2022/03/19 05:22:14;;;;;;;16.50;2.78;;;;;;;20.45;56.08;101951.50;7313908;19;129543;-39
2022/03/19 05:24:39;;;;;;;21.83;3.50;;;;;;;20.48;55.29;101957.41;7311386;19;154974;-39
2022/03/19 05:27:04;;;;;;;35.33;3.90;;;;;;;20.47;55.94;101952.28;7309992;19;153649;-37
2022/03/19 05:29:32;;;;;;;48.00;5.05;;;;;;;20.50;56.56;101949.50;7312823;19;129425;-39
2022/03/19 05:31:58;;;;;;;28.13;3.92;;;;;;;20.54;55.39;101951.06;7308566;19;157510;-39
2022/03/19 05:34:30;;;;;;;22.38;3.20;;;;;;;20.56;56.00;101950.03;7312934;19;136663;-38
2022/03/19 05:36:55;;;;;;;19.00;3.08;;;;;;;20.57;54.80;101950.91;7313258;19;129052;-38
2022/03/19 05:39:21;;;;;;;24.05;3.45;;;;;;;20.59;55.52;101962.13;7312495;19;129163;-38
2022/03/19 05:41:46;;;;;;;35.55;4.88;;;;;;;20.54;55.99;101957.09;7312972;19;130040;-38
2022/03/19 05:44:11;;;;;;;40.83;4.97;;;;;;;20.56;55.25;101957.88;7311961;19;129655;-39
2022/03/19 05:46:37;;;;;;;26.95;3.40;;;;;;;20.46;56.50;101947.97;7310894;19;129019;-38
2022/03/19 05:49:02;;;;;;;33.30;3.72;;;;;;;20.55;56.30;101955.34;7309434;19;158677;-38
2022/03/19 05:51:27;;;;;;;24.10;3.38;;;;;;;20.44;56.59;101944.59;7311313;19;157879;-38
2022/03/19 05:53:52;;;;;;;40.42;5.05;;;;;;;20.48;56.15;101959.19;7308932;19;155659;-38
2022/03/19 05:56:18;;;;;;;25.35;3.42;;;;;;;20.50;57.71;101959.97;7310508;19;153373;-40
2022/03/19 05:58:43;;;;;;;16.83;2.70;;;;;;;20.49;56.17;101956.47;7310796;19;129585;-38
2022/03/19 06:01:08;;;;;;;32.55;3.95;;;;;;;20.47;56.99;101958.34;7307267;19;158509;-39
2022/03/19 06:03:34;;;;;;;32.23;3.93;;;;;;;20.45;56.31;101956.72;7308823;19;154377;-39
2022/03/19 06:05:59;;;;;;;32.63;3.95;;;;;;;20.48;55.78;101961.78;7309752;19;131226;-39
2022/03/19 06:08:24;;;;;;;26.08;3.47;;;;;;;20.45;56.09;101957.56;7310755;19;144931;-38
2022/03/19 06:10:49;;;;;;;25.80;3.88;;;;;;;20.43;56.18;101948.09;7308644;19;153991;-38
2022/03/19 06:13:14;;;;;;;54.78;5.85;;;;;;;20.44;56.34;101955.88;7309131;19;154328;-41
2022/03/19 06:15:40;;;;;;;29.60;3.75;;;;;;;20.44;56.02;101947.19;7309859;19;154293;-40
2022/03/19 06:18:05;;;;;;;57.97;5.55;;;;;;;20.43;55.63;101950.72;7308871;19;158257;-39
2022/03/19 06:20:30;;;;;;;29.08;3.65;;;;;;;20.43;56.07;101958.56;7305808;19;158799;-37
2022/03/19 06:22:56;;;;;;;40.37;4.63;;;;;;;20.41;55.44;101960.41;7311219;19;154854;-39
2022/03/19 06:25:21;;;;;;;49.25;5.82;;;;;;;20.37;57.08;101959.72;7310045;19;129568;-41
2022/03/19 06:27:46;;;;;;;24.45;3.22;;;;;;;20.40;56.11;101963.94;7309792;19;159301;-39
2022/03/19 06:30:12;;;;;;;39.05;4.57;;;;;;;20.43;56.34;101974.22;7305463;19;158462;-38
2022/03/19 06:32:41;;;;;;;49.03;5.15;;;;;;;20.41;56.01;101963.03;7310836;19;130681;-38
2022/03/19 06:35:07;;;;;;;38.00;4.22;;;;;;;20.40;55.69;101956.09;7308958;19;129966;-39
2022/03/19 06:37:33;;;;;;;49.28;5.38;;;;;;;20.39;56.29;101955.28;7310418;19;130695;-38
2022/03/19 06:40:06;;;;;;;26.25;3.08;;;;;;;20.40;55.66;101958.72;7308249;19;130467;-39
2022/03/19 06:42:31;;;;;;;49.33;5.28;;;;;;;20.42;55.43;101962.09;7310161;19;129157;-40
2022/03/19 06:44:56;;;;;;;29.02;3.67;;;;;;;20.40;56.42;101964.78;7308596;19;129239;-38
2022/03/19 06:47:22;;;;;;;42.40;4.90;;;;;;;20.39;55.52;101957.88;7306688;19;158226;-39
2022/03/19 06:49:47;;;;;;;19.93;2.63;;;;;;;20.35;57.28;101952.84;7308671;19;158470;-38
2022/03/19 06:52:12;;;;;;;48.47;4.78;;;;;;;20.33;56.58;101947.72;7310470;19;135425;-40
2022/03/19 06:54:38;;;;;;;25.05;3.15;;;;;;;20.35;56.96;101945.88;7310524;19;129647;-40
2022/03/19 06:57:03;;;;;;;17.00;2.85;;;;;;;20.35;55.78;101956.34;7308994;19;130136;-39
2022/03/19 06:59:30;;;;;;;55.58;5.60;;;;;;;20.34;56.00;101948.56;7307568;19;129726;-40
2022/03/19 07:01:56;;;;;;;27.20;3.35;;;;;;;20.32;55.94;101935.59;7310953;19;129604;-38
2022/03/19 07:04:21;;;;;;;6.63;1.98;;;;;;;20.33;56.88;101947.72;7309322;19;154026;-38
2022/03/19 07:06:46;;;;;;;36.83;4.20;;;;;;;20.31;56.75;101944.31;7307949;19;139197;-39
2022/03/19 07:09:11;;;;;;;56.97;5.75;;;;;;;20.31;56.53;101943.50;7307157;19;159312;-38
2022/03/19 07:11:37;;;;;;;31.45;3.85;;;;;;;20.32;56.36;101953.00;7308163;19;129179;-38
2022/03/19 07:14:04;;;;;;;28.05;3.58;;;;;;;20.31;56.93;101943.50;7310942;19;129063;-38
2022/03/19 07:16:30;;;;;;;37.97;4.05;;;;;;;20.30;56.87;101947.00;7309864;19;130684;-38
2022/03/19 07:18:55;;;;;;;32.33;3.65;;;;;;;20.31;57.30;101943.50;7307500;19;151964;-39
2022/03/19 07:21:21;;;;;;;38.03;4.28;;;;;;;20.29;56.67;101953.16;7307997;19;129478;-39
2022/03/19 07:23:46;;;;;;;22.10;3.20;;;;;;;20.31;56.67;101948.72;7307291;19;129450;-39
2022/03/19 07:26:11;;;;;;;24.98;3.25;;;;;;;20.28;56.24;101946.25;7308156;19;158566;-39
2022/03/19 07:28:37;;;;;;;22.10;3.33;;;;;;;20.27;56.92;101948.03;7305929;19;158279;-38
2022/03/19 07:31:03;;;;;;;47.13;4.88;;;;;;;20.27;56.56;101949.78;7304771;19;154490;-39
2022/03/19 07:33:33;;;;;;;35.33;3.85;;;;;;;20.26;57.24;101946.31;7306924;19;138796;-39
2022/03/19 07:35:58;;;;;;;31.50;3.65;;;;;;;20.27;56.56;101936.72;7308777;19;130331;-38
2022/03/19 07:38:24;;;;;;;23.42;3.05;;;;;;;20.26;57.69;101948.09;7308654;19;159914;-38
2022/03/19 07:43:33;;;;;;;28.65;3.50;;;;;;;20.28;57.90;101933.22;7317638;19;129153;-38
2022/03/19 07:45:58;;;;;;;21.75;2.85;;;;;;;20.26;57.97;101929.81;7314187;19;130328;-39
2022/03/19 07:48:24;;;;;;;31.95;3.65;;;;;;;20.25;55.97;101928.09;7312536;19;158526;-39
2022/03/19 07:50:49;;;;;;;35.38;4.15;;;;;;;20.16;57.32;101902.44;7309720;19;155194;-40
2022/03/19 07:53:14;;;;;;;44.27;4.97;;;;;;;20.23;56.88;101914.31;7312943;19;155377;-39
2022/03/19 07:55:40;;;;;;;47.53;4.95;;;;;;;20.22;56.23;101921.28;7315483;19;130061;-40
2022/03/19 07:58:06;;;;;;;28.77;3.60;;;;;;;20.23;57.20;101924.75;7315331;19;130407;-41
2022/03/19 08:00:31;;;;;;;12.52;2.40;;;;;;;20.12;57.04;101898.25;7314762;19;130455;-40
2022/03/19 08:02:56;;;;;;;43.92;4.57;;;;;;;20.22;57.63;101917.81;7316885;19;129939;-40
2022/03/19 08:05:22;;;;;;;60.13;6.38;;;;;;;20.23;57.08;101917.72;7317207;19;130280;-41
2022/03/19 08:07:47;;;;;;;17.35;2.88;;;;;;;20.24;57.31;101926.44;7312952;19;145108;-40
2022/03/19 08:10:13;;;;;;;27.75;3.60;;;;;;;20.22;57.05;101923.03;7315450;19;128917;-39
2022/03/19 08:12:40;;;;;;;24.25;2.97;;;;;;;20.21;56.88;101918.75;7316379;19;129872;-39
2022/03/19 08:15:07;;;;;;;37.40;4.28;;;;;;;20.12;56.97;101895.63;7315279;19;129885;-40
2022/03/19 08:17:33;;;;;;;;;;;;;;;20.27;57.37;101905.38;7315030;19;129919;-39
2022/03/19 08:19:59;;;;;;;28.85;3.47;;;;;;;20.21;57.44;101901.28;7314919;19;129139;-41
2022/03/19 08:22:27;;;;;;;29.00;3.57;;;;;;;20.18;57.90;101905.84;7315496;19;130126;-41
2022/03/19 08:24:53;;;;;;;42.05;4.57;;;;;;;20.18;57.71;101905.84;7315345;19;130284;-39
2022/03/19 08:27:19;;;;;;;21.73;2.70;;;;;;;20.19;56.76;101907.53;7314063;19;130216;-41
2022/03/19 08:29:44;;;;;;;21.60;2.93;;;;;;;20.19;56.11;101907.53;7314502;19;129821;-38
2022/03/19 08:32:10;;;;;;;9.37;2.10;;;;;;;20.18;56.63;101900.63;7314932;19;150495;-41
2022/03/19 08:34:37;;;;;;;26.67;3.37;;;;;;;20.17;56.72;101904.13;7314818;19;130664;-39
2022/03/19 08:37:03;;;;;;;36.53;4.10;;;;;;;20.16;57.66;101910.28;7315441;19;132692;-41
2022/03/19 08:42:11;;;;;;;31.67;3.65;;;;;;;20.16;57.05;101892.00;7315621;19;128806;-40
2022/03/19 08:44:37;;;;;;;23.88;3.08;;;;;;;20.15;57.94;101892.91;7314102;19;158293;-41
2022/03/19 08:47:02;;;;;;;35.67;4.22;;;;;;;20.16;57.91;101892.00;7312082;19;149925;-40
2022/03/19 08:49:28;;;;;;;28.80;3.53;;;;;;;20.15;57.09;101896.38;7314891;19;130105;-39
2022/03/19 08:51:54;;;;;;;33.57;4.00;;;;;;;20.15;57.32;101900.75;7313719;19;129020;-38
2022/03/19 08:54:20;;;;;;;23.75;3.20;;;;;;;20.14;56.73;101897.28;7312320;19;158198;-39
2022/03/19 08:56:48;;;;;;;21.58;2.70;;;;;;;20.07;57.21;101881.94;7314376;19;131793;-42
2022/03/19 08:59:16;;;;;;;31.42;3.55;;;;;;;20.16;56.14;101897.22;7314206;19;129032;-42
2022/03/19 09:01:42;;;;;;;27.80;3.42;;;;;;;20.14;57.87;101891.19;7315724;19;128936;-41
2022/03/19 09:04:09;;;;;;;23.30;3.03;;;;;;;20.15;56.51;101895.50;7315600;19;130219;-39
2022/03/19 09:06:34;;;;;;;26.48;3.35;;;;;;;20.13;56.23;101887.72;7313904;19;130419;-41
2022/03/19 09:09:02;;;;;;;80.95;7.75;;;;;;;20.15;56.08;101891.16;7301119;19;130771;-40
2022/03/19 09:11:28;;;;;;;28.15;3.33;;;;;;;20.14;57.04;101893.81;7309041;19;129006;-41
2022/03/19 09:13:53;;;;;;;22.77;2.95;;;;;;;20.12;56.29;101898.25;7314966;19;129137;-41
2022/03/19 09:16:19;;;;;;;21.52;3.03;;;;;;;20.14;57.71;101899.03;7313117;19;130249;-40
2022/03/19 09:18:45;;;;;;;24.92;2.95;;;;;;;20.14;57.42;101901.63;7315124;19;129582;-37
2022/03/19 09:21:10;;;;;;;22.65;3.05;;;;;;;20.07;56.45;101893.25;7312096;19;129021;-41
2022/03/19 09:23:35;;;;;;;22.48;2.83;;;;;;;20.12;57.36;101891.25;7312945;19;159397;-41
2022/03/19 09:26:01;;;;;;;22.30;3.05;;;;;;;20.13;58.04;101898.16;7312956;19;129383;-40
2022/03/19 09:28:26;;;;;;;24.02;3.08;;;;;;;20.11;57.47;101899.19;7314503;19;129006;-41
2022/03/19 09:30:51;;;;;;;21.30;2.70;;;;;;;20.10;56.90;101897.47;7311377;19;154226;-41
2022/03/19 09:33:17;;;;;;;21.15;3.35;;;;;;;20.10;57.27;101905.31;7312748;19;158813;-39
2022/03/19 09:35:45;;;;;;;31.20;3.73;;;;;;;20.11;57.18;101904.41;7314351;19;129292;-39
2022/03/19 09:38:11;;;;;;;8.20;2.08;;;;;;;20.09;57.82;101896.66;7314336;19;128852;-41
2022/03/19 09:40:36;;;;;;;31.30;3.88;;;;;;;20.10;57.39;101900.09;7311972;19;130023;-40
2022/03/19 09:43:02;;;;;;;24.67;2.92;;;;;;;20.10;56.78;101897.47;7307521;19;159117;-39
2022/03/19 09:45:28;;;;;;;36.33;4.15;;;;;;;20.10;57.56;101897.47;7310750;19;159357;-41
2022/03/19 09:47:55;;;;;;;44.95;5.20;;;;;;;20.08;57.86;101894.13;7305427;19;129626;-39
2022/03/19 09:50:21;;;;;;;39.05;4.35;;;;;;;20.08;56.92;101883.66;7307840;19;129517;-41
2022/03/19 09:52:50;;;;;;;42.23;3.87;;;;;;;20.05;56.89;101886.41;7313566;19;130913;-40
2022/03/19 09:55:17;;;;;;;65.05;5.90;;;;;;;20.05;56.97;101883.78;7305476;19;129815;-40
2022/03/19 09:57:42;;;;;;;39.97;4.00;;;;;;;20.08;57.42;101883.66;7312821;19;129240;-40
2022/03/19 10:00:09;;;;;;;30.35;3.55;;;;;;;20.07;57.37;101879.34;7310863;19;129410;-39
2022/03/19 10:03:08;;;;;;;42.60;4.60;;;;;;;20.07;57.56;101880.19;7311089;19;130276;-41
2022/03/19 10:08:36;;;;;;;28.23;3.13;;;;;;;20.04;57.48;101871.66;7310501;19;131433;-39
2022/03/19 10:11:06;;;;;;;48.97;5.28;;;;;;;20.04;57.71;101885.56;7309314;19;129232;-39
2022/03/19 10:13:32;;;;;;;35.35;3.90;;;;;;;20.03;56.77;101881.25;7311440;19;130197;-40
2022/03/19 10:15:57;;;;;;;50.00;5.03;;;;;;;20.02;56.33;101874.34;7311381;19;129807;-41
2022/03/19 10:18:30;;;;;;;24.27;3.05;;;;;;;20.03;57.20;101875.22;7310726;19;137279;-41
2022/03/19 10:21:00;;;;;;;18.52;2.97;;;;;;;19.94;56.62;101860.81;7310012;19;128962;-41
2022/03/19 10:23:36;;;;;;;19.08;2.55;;;;;;;20.04;58.04;101876.88;7309193;19;130358;-40
2022/03/19 10:26:02;;;;;;;42.33;4.53;;;;;;;20.04;57.66;101874.28;7309379;19;129771;-41
2022/03/19 10:28:32;;;;;;;31.65;4.03;;;;;;;20.06;57.34;101869.84;7306214;19;129601;-40
2022/03/19 10:30:58;;;;;;;51.95;5.32;;;;;;;20.04;57.65;101866.44;7306762;19;129168;-37
2022/03/19 10:33:28;;;;;;;35.08;3.92;;;;;;;19.99;57.77;101863.22;7311588;19;129843;-42
2022/03/19 10:36:08;;;;;;;32.83;3.65;;;;;;;20.01;58.30;101857.00;7309334;19;130745;-40
2022/03/19 10:38:42;;;;;;;26.05;3.45;;;;;;;20.01;58.22;101864.00;7310565;19;129080;-39
2022/03/19 10:41:08;;;;;;;55.30;5.57;;;;;;;20.00;56.94;101860.53;7305929;19;129248;-39
2022/03/19 10:43:34;;;;;;;24.38;2.60;;;;;;;20.01;57.66;101861.38;7308759;19;150654;-41
2022/03/19 10:46:02;;;;;;;45.65;4.95;;;;;;;20.00;57.52;101849.25;7308481;19;130687;-37
2022/03/19 10:48:28;;;;;;;27.13;3.42;;;;;;;20.00;57.42;101855.28;7309027;19;129339;-40
2022/03/19 10:50:54;;;;;;;;;;;;;;;20.05;58.09;101845.47;7309095;19;129504;-40
2022/03/19 10:53:21;;;;;;;28.55;3.03;;;;;;;20.02;56.98;101843.03;7310507;19;130295;-39
2022/03/19 10:55:47;;;;;;;29.58;3.25;;;;;;;20.02;57.02;101836.94;7311135;19;130693;-42
2022/03/19 10:58:12;;;;;;;37.80;4.03;;;;;;;20.03;56.15;101836.03;7310607;19;128969;-41
2022/03/19 11:00:38;;;;;;;36.88;3.88;;;;;;;20.00;57.21;101828.38;7308153;19;128934;-37
2022/03/19 11:03:17;;;;;;;26.75;3.15;;;;;;;20.02;58.04;101823.88;7310230;19;130130;-41
2022/03/19 11:05:44;;;;;;;13.93;2.22;;;;;;;20.01;58.23;101825.69;7307842;19;129283;-40
2022/03/19 11:08:11;;;;;;;32.90;3.80;;;;;;;20.00;57.65;101825.75;7308228;19;129731;-40
2022/03/19 11:10:37;;;;;;;33.00;3.42;;;;;;;19.98;57.76;101806.69;7308216;19;129080;-39
2022/03/19 11:13:03;;;;;;;24.47;2.73;;;;;;;19.99;57.84;101811.84;7310301;19;129277;-40
2022/03/19 11:15:33;;;;;;;60.80;6.43;;;;;;;20.00;57.70;101817.91;7312689;19;129362;-40
2022/03/19 11:18:00;;;;;;;32.13;3.72;;;;;;;19.89;57.54;101788.88;7317911;19;129598;-41
2022/03/19 11:20:26;;;;;;;17.13;2.30;;;;;;;19.97;57.58;101797.16;7314528;19;129075;-40
2022/03/19 11:22:57;;;;;;;24.15;2.85;;;;;;;19.98;57.93;101794.47;7316179;19;158273;-41